createdAt,value
2022-09-14T00:25:08.728Z,101178.28
2022-09-14T00:30:13.731Z,101155.84
2022-09-14T00:35:15.363Z,101144.75
2022-09-14T00:40:18.798Z,101135.19
2022-09-14T00:45:22.224Z,101130.44
2022-09-14T00:50:23.977Z,101153.47
2022-09-14T00:55:25.752Z,101147.31
2022-09-14T01:00:30.351Z,101152.97
2022-09-14T01:05:51.498Z,101146.34
2022-09-14T01:11:02.134Z,101119.41
2022-09-14T01:16:07.442Z,101080.69
2022-09-14T01:21:14.353Z,101051.53
2022-09-14T01:26:53.583Z,101044.47
2022-09-14T01:32:12.754Z,101046.06
2022-09-14T01:37:37.800Z,101048.47
2022-09-14T01:42:42.898Z,101042.59
2022-09-14T01:47:55.481Z,101046.97
2022-09-14T01:53:12.275Z,101060.66
2022-09-14T01:58:32.663Z,101069.31
2022-09-14T02:03:40.434Z,101042.91
2022-09-14T02:08:44.666Z,101020.34
2022-09-14T02:13:46.150Z,101012.66
2022-09-14T02:18:47.751Z,100999.78
2022-09-14T02:23:49.685Z,101004.72
2022-09-14T02:28:55.890Z,100988.34
2022-09-14T02:34:03.396Z,100990.03
2022-09-14T02:39:26.176Z,101002.91
2022-09-14T02:44:46.355Z,100992.56
2022-09-14T02:50:01.403Z,100998.94
2022-09-14T02:55:12.882Z,100985.72
2022-09-14T03:00:14.567Z,100987.34
2022-09-14T03:05:16.087Z,100997.66
2022-09-14T03:10:17.785Z,101001.84
2022-09-14T03:15:19.876Z,100993.19
2022-09-14T03:20:24.092Z,100988.88
2022-09-14T04:56:40.403Z,101003.06
2022-09-14T05:01:47.716Z,100995.25
2022-09-14T05:06:51.235Z,101000.66
2022-09-14T05:11:52.874Z,101001.44
2022-09-14T05:16:54.764Z,101020.97
2022-09-14T05:21:56.257Z,101050.63
2022-09-14T05:27:00.952Z,101048.97
2022-09-14T05:32:03.494Z,101040.31
2022-09-14T05:37:05.098Z,101034.16
2022-09-14T05:42:06.797Z,101024.72
2022-09-14T05:47:08.311Z,101048.03
2022-09-14T05:52:09.778Z,101053.47
2022-09-14T05:57:11.275Z,101053.25
2022-09-14T06:02:15.343Z,101067.66
2022-09-14T06:07:19.449Z,101080.28
2022-09-14T06:12:20.993Z,101074.94
2022-09-14T06:17:22.558Z,101074.81
2022-09-14T06:22:24.078Z,101085.00
2022-09-14T06:27:25.557Z,101084.34
2022-09-14T06:32:30.601Z,101081.66
2022-09-14T06:37:33.118Z,101093.06
2022-09-14T06:42:34.625Z,101101.19
2022-09-14T06:47:38.071Z,101095.94
2022-09-14T06:52:40.158Z,101107.22
2022-09-14T06:57:43.152Z,101111.72
2022-09-14T07:02:44.966Z,101095.25
2022-09-14T07:07:46.579Z,101102.88
2022-09-14T07:12:48.154Z,101103.78
2022-09-14T07:17:49.642Z,101100.38
2022-09-14T07:22:51.131Z,101086.75
2022-09-14T07:27:52.709Z,101083.47
2022-09-14T07:32:54.471Z,101082.00
2022-09-14T07:37:55.942Z,101069.97
2022-09-14T07:42:57.808Z,101042.34
2022-09-14T07:47:59.400Z,101048.44
2022-09-14T07:53:00.915Z,101057.38
2022-09-14T07:58:02.408Z,101064.31
2022-09-14T08:03:03.991Z,101079.13
2022-09-14T08:08:05.776Z,101076.31
2022-09-14T08:13:07.354Z,101062.69
2022-09-14T08:18:08.824Z,101042.06
2022-09-14T08:23:11.117Z,101018.09
2022-09-14T08:28:12.617Z,101008.78
2022-09-14T08:33:14.181Z,101016.56
2022-09-14T08:38:16.151Z,101004.53
2022-09-14T08:43:21.467Z,101006.19
2022-09-14T08:48:29.341Z,101007.69
2022-09-14T08:53:34.773Z,101004.03
2022-09-14T08:59:06.782Z,100996.34
2022-09-14T09:04:27.018Z,101004.06
2022-09-14T09:09:48.669Z,101014.38
2022-09-14T09:14:53.210Z,101015.59
2022-09-14T09:20:10.158Z,101014.47
2022-09-14T09:25:23.824Z,101011.03
2022-09-14T09:30:25.700Z,101025.91
2022-09-14T09:35:27.315Z,101009.56
2022-09-14T09:40:44.973Z,100999.50
2022-09-14T09:45:55.211Z,100970.13
2022-09-14T09:51:30.765Z,100960.72
2022-09-14T09:56:36.267Z,100943.63
2022-09-14T10:01:39.957Z,100948.00
2022-09-14T10:06:47.026Z,100918.38
2022-09-14T10:11:58.327Z,100902.97
2022-09-14T10:17:21.432Z,100914.28
2022-09-14T10:22:34.475Z,100900.41
2022-09-14T10:27:53.017Z,100898.69
2022-09-14T10:33:06.469Z,100891.06
2022-09-14T10:38:28.194Z,100864.22
2022-09-14T10:43:43.921Z,100861.56
2022-09-14T10:49:03.681Z,100874.63
2022-09-14T10:54:28.398Z,100879.78
2022-09-14T11:00:00.288Z,100867.69
2022-09-14T11:05:20.446Z,100853.00
2022-09-14T11:10:21.804Z,100856.69
2022-09-14T11:15:35.524Z,100860.97
2022-09-14T11:20:50.375Z,100836.69
2022-09-14T11:25:59.969Z,100827.25
2022-09-14T11:31:16.245Z,100813.41
2022-09-14T11:36:34.125Z,100787.38
2022-09-14T11:41:49.046Z,100798.81
2022-09-14T11:47:01.596Z,100794.41
2022-09-14T11:52:25.395Z,100797.97
2022-09-14T11:57:30.293Z,100784.94
2022-09-14T12:02:31.976Z,100780.72
2022-09-14T12:07:55.440Z,100801.50
2022-09-14T12:13:22.303Z,100763.31
2022-09-14T12:18:27.768Z,100768.53
2022-09-14T12:23:42.037Z,100778.97
2022-09-14T12:28:50.643Z,100746.94
2022-09-14T12:34:15.061Z,100735.69
2022-09-14T12:39:25.917Z,100713.25
2022-09-14T12:44:40.466Z,100699.38
2022-09-14T12:49:42.010Z,100702.88
2022-09-14T12:55:15.732Z,100695.94
2022-09-14T13:00:19.963Z,100689.00
2022-09-14T13:05:24.843Z,100687.28
2022-09-14T13:10:32.026Z,100686.41
2022-09-14T13:15:37.301Z,100690.72
2022-09-14T13:20:38.854Z,100671.69
2022-09-14T13:25:40.465Z,100656.94
2022-09-14T13:30:43.157Z,100662.97
2022-09-14T13:35:54.992Z,100675.06
2022-09-14T13:41:10.728Z,100656.88
2022-09-14T13:46:12.396Z,100609.25
2022-09-14T13:51:14.864Z,100602.34
2022-09-14T13:56:24.319Z,100583.31
2022-09-14T14:01:28.790Z,100586.72
2022-09-14T14:06:32.730Z,100580.59
2022-09-14T14:11:48.155Z,100573.63
2022-09-14T14:17:11.208Z,100571.81
2022-09-14T14:22:15.615Z,100570.00
2022-09-14T14:27:32.177Z,100547.59
2022-09-14T14:32:33.659Z,100549.19
2022-09-14T14:37:35.204Z,100546.53
2022-09-14T14:42:36.830Z,100548.97
2022-09-14T14:47:38.355Z,100537.03
2022-09-14T14:52:40.259Z,100527.41
2022-09-14T14:57:41.992Z,100539.63
2022-09-14T15:02:45.813Z,100523.97
2022-09-14T15:07:49.741Z,100524.88
2022-09-14T15:12:51.867Z,100510.91
2022-09-14T15:17:54.138Z,100496.16
2022-09-14T15:22:55.787Z,100515.25
2022-09-14T15:27:57.405Z,100498.66
2022-09-14T15:32:58.944Z,100482.31
2022-09-14T15:38:00.460Z,100489.97
2022-09-14T15:43:02.477Z,100498.00
2022-09-14T15:48:06.373Z,100501.44
2022-09-14T15:53:15.563Z,100500.53
2022-09-14T15:58:17.085Z,100501.38
2022-09-14T16:03:18.664Z,100502.94
2022-09-14T16:08:20.741Z,100503.22
2022-09-14T16:13:22.347Z,100518.00
2022-09-14T16:18:25.865Z,100519.78
2022-09-14T16:23:27.534Z,100540.59
2022-09-14T16:28:29.035Z,100541.47
2022-09-14T16:33:30.511Z,100552.75
2022-09-14T16:38:31.974Z,100558.91
2022-09-14T16:44:02.342Z,100578.94
2022-09-14T16:49:04.989Z,100571.16
2022-09-14T16:54:06.994Z,100593.69
2022-09-14T16:59:09.805Z,100611.91
2022-09-14T17:04:14.931Z,100631.81
2022-09-14T17:09:23.222Z,100646.53
2022-09-14T17:14:29.445Z,100660.38
2022-09-14T17:19:30.937Z,100685.44
2022-09-14T17:24:32.422Z,100712.25
2022-09-14T17:29:38.484Z,100720.84
2022-09-14T17:34:40.037Z,100745.84
2022-09-14T17:39:41.507Z,100761.34
2022-09-14T17:44:43.636Z,100780.34
2022-09-14T17:49:45.102Z,100783.69
2022-09-14T17:54:46.649Z,100799.22
2022-09-14T17:59:48.200Z,100804.31
2022-09-14T18:04:49.689Z,100818.09
2022-09-14T18:09:51.454Z,100825.84
2022-09-14T18:14:52.931Z,100827.53
2022-09-14T18:19:58.292Z,100841.97
2022-09-14T18:24:59.825Z,100857.28
2022-09-14T18:30:02.686Z,100858.09
2022-09-14T18:35:04.679Z,100865.53
2022-09-14T18:40:06.744Z,100867.97
2022-09-14T18:45:08.798Z,100876.59
2022-09-14T18:50:10.738Z,100875.50
2022-09-14T18:55:12.208Z,100892.72
2022-09-14T19:00:18.340Z,100903.84
2022-09-14T19:05:20.737Z,100908.91
2022-09-14T19:10:22.810Z,100913.84
2022-09-14T19:15:26.977Z,100914.78
2022-09-14T19:20:48.796Z,100920.59
2022-09-14T19:25:52.653Z,100910.84
2022-09-14T19:30:54.230Z,100926.06
2022-09-14T19:35:55.783Z,100958.84
2022-09-14T19:40:57.275Z,100952.00
2022-09-14T19:46:04.546Z,100940.09
2022-09-14T19:51:14.469Z,100944.19
2022-09-14T19:56:16.891Z,100939.75
2022-09-14T20:01:20.181Z,100967.94
2022-09-14T20:06:29.611Z,100984.09
2022-09-14T20:11:33.306Z,100998.03
2022-09-14T20:16:40.624Z,100995.41
2022-09-14T20:21:43.900Z,100987.72
2022-09-14T20:26:50.292Z,100994.19
2022-09-14T20:31:52.239Z,101002.91
2022-09-14T20:36:54.693Z,101006.81
2022-09-14T20:41:56.192Z,101019.88
2022-09-14T20:46:57.712Z,101033.56
2022-09-14T20:52:02.459Z,101038.91
2022-09-14T20:57:04.698Z,101052.94
2022-09-14T21:02:06.764Z,101062.47
2022-09-14T21:07:08.279Z,101065.06
2022-09-14T21:12:12.187Z,101080.09
2022-09-14T21:17:13.711Z,101079.59
2022-09-14T21:22:15.234Z,101078.94
2022-09-14T21:27:16.763Z,101077.19
2022-09-14T21:32:18.248Z,101065.28
2022-09-14T21:37:19.735Z,101063.53
2022-09-14T21:42:25.453Z,101066.34
2022-09-14T21:47:27.076Z,101056.13
2022-09-14T21:52:28.623Z,101053.38
2022-09-14T21:57:30.085Z,101063.53
2022-09-14T22:02:32.079Z,101070.44
2022-09-14T22:07:35.413Z,101065.38
2022-09-14T22:12:36.904Z,101056.47
2022-09-14T22:17:38.651Z,101056.09
2022-09-14T22:22:42.790Z,101067.94
2022-09-14T22:27:44.301Z,101066.03
2022-09-14T22:32:45.812Z,101064.50
2022-09-14T22:37:48.356Z,101056.50
2022-09-14T22:42:50.876Z,101062.16
2022-09-14T22:47:52.335Z,101063.59
2022-09-14T22:52:53.912Z,101068.41
2022-09-14T22:57:57.454Z,101069.00
2022-09-14T23:02:59.009Z,101068.28
2022-09-14T23:08:00.726Z,101061.00
2022-09-14T23:13:02.219Z,101052.22
2022-09-14T23:18:05.736Z,101047.06
2022-09-14T23:23:08.167Z,101043.19
2022-09-14T23:28:11.422Z,101037.13
2022-09-14T23:33:13.941Z,101047.78
2022-09-14T23:38:16.152Z,101064.63
2022-09-14T23:43:18.109Z,101060.84
2022-09-14T23:48:19.669Z,101054.94
2022-09-14T23:53:21.126Z,101059.09
2022-09-14T23:58:22.907Z,101056.69
